sensor_id;sensor_type;location;lat;lon;timestamp;pressure;altitude;pressure_sealevel;temperature;humidity
78409;BME280;67697;50.750;-3.270;2024-01-11T00:00:30;102424.70;;;0.04;100.00
78409;BME280;67697;50.750;-3.270;2024-01-11T00:02:55;102421.72;;;0.29;100.00
78409;BME280;67697;50.750;-3.270;2024-01-11T00:05:21;102415.96;;;-0.10;100.00
78409;BME280;67697;50.750;-3.270;2024-01-11T00:07:46;102418.60;;;-0.32;100.00
78409;BME280;67697;50.750;-3.270;2024-01-11T00:10:12;102414.19;;;0.21;100.00
78409;BME280;67697;50.750;-3.270;2024-01-11T00:12:37;102412.82;;;0.07;100.00
78409;BME280;67697;50.750;-3.270;2024-01-11T00:15:02;102415.90;;;0.02;100.00
78409;BME280;67697;50.750;-3.270;2024-01-11T00:17:27;102417.02;;;-0.20;100.00
78409;BME280;67697;50.750;-3.270;2024-01-11T00:19:52;102418.66;;;0.31;100.00
78409;BME280;67697;50.750;-3.270;2024-01-11T00:22:17;102425.54;;;-0.03;100.00
78409;BME280;67697;50.750;-3.270;2024-01-11T00:24:43;102422.47;;;-0.05;100.00
78409;BME280;67697;50.750;-3.270;2024-01-11T00:27:09;102428.73;;;-0.14;100.00
78409;BME280;67697;50.750;-3.270;2024-01-11T00:29:36;102433.45;;;-0.36;100.00
78409;BME280;67697;50.750;-3.270;2024-01-11T00:32:01;102433.04;;;0.31;100.00
78409;BME280;67697;50.750;-3.270;2024-01-11T00:34:27;102432.25;;;0.78;100.00
78409;BME280;67697;50.750;-3.270;2024-01-11T00:36:52;102432.41;;;1.21;100.00
78409;BME280;67697;50.750;-3.270;2024-01-11T00:39:17;102438.62;;;0.29;100.00
78409;BME280;67697;50.750;-3.270;2024-01-11T00:41:43;102434.13;;;0.56;100.00
78409;BME280;67697;50.750;-3.270;2024-01-11T00:44:08;102437.41;;;-0.06;100.00
78409;BME280;67697;50.750;-3.270;2024-01-11T00:46:34;102443.16;;;0.24;100.00
78409;BME280;67697;50.750;-3.270;2024-01-11T00:49:00;102444.28;;;0.44;100.00
78409;BME280;67697;50.750;-3.270;2024-01-11T00:51:25;102444.59;;;0.33;100.00
78409;BME280;67697;50.750;-3.270;2024-01-11T00:53:51;102454.85;;;0.19;100.00
78409;BME280;67697;50.750;-3.270;2024-01-11T00:56:17;102461.14;;;-0.40;100.00
78409;BME280;67697;50.750;-3.270;2024-01-11T00:58:42;102467.15;;;1.15;100.00
78409;BME280;67697;50.750;-3.270;2024-01-11T01:01:09;102475.76;;;0.27;100.00
78409;BME280;67697;50.750;-3.270;2024-01-11T01:03:33;102482.20;;;0.76;100.00
78409;BME280;67697;50.750;-3.270;2024-01-11T01:05:59;102486.64;;;0.49;100.00
78409;BME280;67697;50.750;-3.270;2024-01-11T01:08:24;102496.81;;;0.71;100.00
78409;BME280;67697;50.750;-3.270;2024-01-11T01:10:49;102494.98;;;0.60;100.00
78409;BME280;67697;50.750;-3.270;2024-01-11T01:13:15;102501.74;;;1.08;100.00
78409;BME280;67697;50.750;-3.270;2024-01-11T01:15:40;102503.89;;;1.25;100.00
78409;BME280;67697;50.750;-3.270;2024-01-11T01:18:05;102502.63;;;0.66;100.00
78409;BME280;67697;50.750;-3.270;2024-01-11T01:20:31;102504.29;;;0.83;100.00
78409;BME280;67697;50.750;-3.270;2024-01-11T01:22:57;102508.65;;;1.04;100.00
78409;BME280;67697;50.750;-3.270;2024-01-11T01:25:22;102508.25;;;0.34;100.00
78409;BME280;67697;50.750;-3.270;2024-01-11T01:27:48;102504.31;;;1.01;100.00
78409;BME280;67697;50.750;-3.270;2024-01-11T01:30:14;102512.34;;;0.78;100.00
78409;BME280;67697;50.750;-3.270;2024-01-11T01:32:39;102515.60;;;1.17;100.00
78409;BME280;67697;50.750;-3.270;2024-01-11T01:35:05;102515.25;;;0.64;100.00
78409;BME280;67697;50.750;-3.270;2024-01-11T01:37:30;102512.42;;;1.10;100.00
78409;BME280;67697;50.750;-3.270;2024-01-11T01:39:55;102516.11;;;1.29;100.00
78409;BME280;67697;50.750;-3.270;2024-01-11T01:42:21;102515.18;;;1.62;99.86
78409;BME280;67697;50.750;-3.270;2024-01-11T01:44:47;102519.89;;;1.08;100.00
78409;BME280;67697;50.750;-3.270;2024-01-11T01:47:12;102522.77;;;1.25;100.00
78409;BME280;67697;50.750;-3.270;2024-01-11T01:49:38;102521.63;;;0.48;100.00
78409;BME280;67697;50.750;-3.270;2024-01-11T01:52:04;102524.23;;;0.94;100.00
78409;BME280;67697;50.750;-3.270;2024-01-11T01:54:28;102524.67;;;1.32;100.00
78409;BME280;67697;50.750;-3.270;2024-01-11T01:56:54;102527.63;;;0.52;100.00
78409;BME280;67697;50.750;-3.270;2024-01-11T01:59:19;102527.12;;;0.77;100.00
78409;BME280;67697;50.750;-3.270;2024-01-11T02:01:45;102533.44;;;0.76;100.00
78409;BME280;67697;50.750;-3.270;2024-01-11T02:04:11;102538.08;;;0.51;100.00
78409;BME280;67697;50.750;-3.270;2024-01-11T02:06:36;102545.52;;;0.81;100.00
78409;BME280;67697;50.750;-3.270;2024-01-11T02:09:02;102547.57;;;1.06;100.00
78409;BME280;67697;50.750;-3.270;2024-01-11T02:11:28;102549.62;;;0.59;100.00
78409;BME280;67697;50.750;-3.270;2024-01-11T02:13:53;102552.21;;;1.10;100.00
78409;BME280;67697;50.750;-3.270;2024-01-11T02:16:18;102556.15;;;0.73;100.00
78409;BME280;67697;50.750;-3.270;2024-01-11T02:18:44;102549.00;;;0.72;100.00
78409;BME280;67697;50.750;-3.270;2024-01-11T02:21:11;102556.52;;;0.97;100.00
78409;BME280;67697;50.750;-3.270;2024-01-11T02:23:38;102561.26;;;0.56;100.00
78409;BME280;67697;50.750;-3.270;2024-01-11T02:25:59;102563.27;;;0.60;100.00
78409;BME280;67697;50.750;-3.270;2024-01-11T02:28:25;102572.80;;;-0.41;100.00
78409;BME280;67697;50.750;-3.270;2024-01-11T02:30:51;102566.00;;;0.82;100.00
78409;BME280;67697;50.750;-3.270;2024-01-11T02:33:16;102575.67;;;0.61;100.00
78409;BME280;67697;50.750;-3.270;2024-01-11T02:35:42;102576.95;;;0.29;100.00
78409;BME280;67697;50.750;-3.270;2024-01-11T02:38:07;102580.23;;;0.64;100.00
78409;BME280;67697;50.750;-3.270;2024-01-11T02:40:34;102577.31;;;1.03;100.00
78409;BME280;67697;50.750;-3.270;2024-01-11T02:43:07;102584.01;;;0.95;100.00
78409;BME280;67697;50.750;-3.270;2024-01-11T02:45:25;102588.57;;;0.84;100.00
78409;BME280;67697;50.750;-3.270;2024-01-11T02:47:51;102594.49;;;0.62;100.00
78409;BME280;67697;50.750;-3.270;2024-01-11T02:50:16;102590.72;;;0.53;100.00
78409;BME280;67697;50.750;-3.270;2024-01-11T02:52:41;102589.29;;;0.82;100.00
78409;BME280;67697;50.750;-3.270;2024-01-11T02:55:07;102594.00;;;1.24;100.00
78409;BME280;67697;50.750;-3.270;2024-01-11T02:57:33;102596.70;;;1.42;100.00
78409;BME280;67697;50.750;-3.270;2024-01-11T02:59:59;102597.97;;;1.02;100.00
78409;BME280;67697;50.750;-3.270;2024-01-11T03:02:24;102596.73;;;1.66;99.68
78409;BME280;67697;50.750;-3.270;2024-01-11T03:04:50;102606.64;;;1.20;100.00
78409;BME280;67697;50.750;-3.270;2024-01-11T03:07:15;102608.08;;;0.93;100.00
78409;BME280;67697;50.750;-3.270;2024-01-11T03:09:40;102611.85;;;1.55;100.00
78409;BME280;67697;50.750;-3.270;2024-01-11T03:12:06;102617.96;;;1.86;98.52
78409;BME280;67697;50.750;-3.270;2024-01-11T03:14:32;102625.53;;;1.04;98.19
78409;BME280;67697;50.750;-3.270;2024-01-11T03:16:57;102635.50;;;1.57;96.30
78409;BME280;67697;50.750;-3.270;2024-01-11T03:19:22;102633.09;;;1.38;97.46
78409;BME280;67697;50.750;-3.270;2024-01-11T03:21:48;102637.26;;;1.29;100.00
78409;BME280;67697;50.750;-3.270;2024-01-11T03:24:14;102632.67;;;1.42;99.49
78409;BME280;67697;50.750;-3.270;2024-01-11T03:26:40;102641.57;;;0.44;100.00
78409;BME280;67697;50.750;-3.270;2024-01-11T03:29:05;102642.26;;;0.49;100.00
78409;BME280;67697;50.750;-3.270;2024-01-11T03:31:30;102634.56;;;0.48;100.00
78409;BME280;67697;50.750;-3.270;2024-01-11T03:33:55;102644.84;;;0.58;100.00
78409;BME280;67697;50.750;-3.270;2024-01-11T03:36:23;102640.40;;;1.50;96.28
78409;BME280;67697;50.750;-3.270;2024-01-11T03:38:46;102643.20;;;0.80;96.95
78409;BME280;67697;50.750;-3.270;2024-01-11T03:41:12;102644.96;;;0.77;99.58
78409;BME280;67697;50.750;-3.270;2024-01-11T03:43:37;102644.00;;;0.42;100.00
78409;BME280;67697;50.750;-3.270;2024-01-11T03:46:03;102646.59;;;0.77;100.00
78409;BME280;67697;50.750;-3.270;2024-01-11T03:48:28;102648.70;;;1.09;100.00
78409;BME280;67697;50.750;-3.270;2024-01-11T03:50:53;102648.60;;;1.12;97.55
78409;BME280;67697;50.750;-3.270;2024-01-11T03:53:19;102657.99;;;1.16;95.56
78409;BME280;67697;50.750;-3.270;2024-01-11T03:55:44;102662.76;;;1.94;94.85
78409;BME280;67697;50.750;-3.270;2024-01-11T03:58:09;102665.77;;;0.99;98.33
78409;BME280;67697;50.750;-3.270;2024-01-11T04:00:35;102669.50;;;0.91;99.32
78409;BME280;67697;50.750;-3.270;2024-01-11T04:03:00;102672.25;;;1.10;99.05
78409;BME280;67697;50.750;-3.270;2024-01-11T04:05:26;102671.35;;;1.28;98.50
78409;BME280;67697;50.750;-3.270;2024-01-11T04:07:51;102673.29;;;1.86;96.97
78409;BME280;67697;50.750;-3.270;2024-01-11T04:10:18;102673.34;;;1.06;95.79
78409;BME280;67697;50.750;-3.270;2024-01-11T04:12:41;102676.27;;;1.41;93.52
78409;BME280;67697;50.750;-3.270;2024-01-11T04:15:08;102675.50;;;2.30;90.29
78409;BME280;67697;50.750;-3.270;2024-01-11T04:17:32;102677.67;;;1.55;89.94
78409;BME280;67697;50.750;-3.270;2024-01-11T04:19:58;102676.38;;;1.60;89.74
78409;BME280;67697;50.750;-3.270;2024-01-11T04:22:23;102684.65;;;1.40;94.48
78409;BME280;67697;50.750;-3.270;2024-01-11T04:24:49;102690.81;;;0.40;99.81
78409;BME280;67697;50.750;-3.270;2024-01-11T04:27:14;102685.58;;;0.36;100.00
78409;BME280;67697;50.750;-3.270;2024-01-11T04:29:40;102684.89;;;0.97;100.00
78409;BME280;67697;50.750;-3.270;2024-01-11T04:32:05;102679.18;;;1.49;97.49
78409;BME280;67697;50.750;-3.270;2024-01-11T04:34:31;102676.00;;;1.93;92.39
78409;BME280;67697;50.750;-3.270;2024-01-11T04:36:57;102679.15;;;1.07;94.42
78409;BME280;67697;50.750;-3.270;2024-01-11T04:39:23;102679.72;;;0.69;96.34
78409;BME280;67697;50.750;-3.270;2024-01-11T04:41:48;102681.48;;;1.14;95.52
78409;BME280;67697;50.750;-3.270;2024-01-11T04:44:14;102683.85;;;0.77;98.64
78409;BME280;67697;50.750;-3.270;2024-01-11T04:46:39;102685.82;;;0.60;96.68
78409;BME280;67697;50.750;-3.270;2024-01-11T04:49:05;102686.13;;;1.12;95.46
78409;BME280;67697;50.750;-3.270;2024-01-11T04:51:30;102683.69;;;0.95;95.09
78409;BME280;67697;50.750;-3.270;2024-01-11T04:53:56;102687.44;;;0.60;95.95
78409;BME280;67697;50.750;-3.270;2024-01-11T04:56:21;102690.22;;;0.35;94.07
78409;BME280;67697;50.750;-3.270;2024-01-11T04:58:49;102691.08;;;0.38;96.51
78409;BME280;67697;50.750;-3.270;2024-01-11T05:01:13;102687.30;;;1.02;94.20
78409;BME280;67697;50.750;-3.270;2024-01-11T05:03:37;102690.87;;;0.89;92.76
78409;BME280;67697;50.750;-3.270;2024-01-11T05:06:03;102683.47;;;1.36;93.41
78409;BME280;67697;50.750;-3.270;2024-01-11T05:08:29;102689.31;;;0.57;92.95
78409;BME280;67697;50.750;-3.270;2024-01-11T05:10:56;102690.92;;;0.85;93.27
78409;BME280;67697;50.750;-3.270;2024-01-11T05:13:20;102702.78;;;0.38;94.92
78409;BME280;67697;50.750;-3.270;2024-01-11T05:15:45;102702.06;;;0.95;96.00
78409;BME280;67697;50.750;-3.270;2024-01-11T05:18:11;102704.75;;;0.04;99.78
78409;BME280;67697;50.750;-3.270;2024-01-11T05:20:36;102700.42;;;0.97;94.89
78409;BME280;67697;50.750;-3.270;2024-01-11T05:23:02;102700.60;;;-0.14;95.47
78409;BME280;67697;50.750;-3.270;2024-01-11T05:25:28;102700.68;;;0.99;95.72
78409;BME280;67697;50.750;-3.270;2024-01-11T05:27:53;102695.15;;;0.66;97.58
78409;BME280;67697;50.750;-3.270;2024-01-11T05:30:19;102697.50;;;0.74;95.28
78409;BME280;67697;50.750;-3.270;2024-01-11T05:32:44;102696.48;;;0.36;97.59
78409;BME280;67697;50.750;-3.270;2024-01-11T05:35:09;102695.09;;;0.82;95.37
78409;BME280;67697;50.750;-3.270;2024-01-11T05:37:35;102700.25;;;-0.41;99.69
78409;BME280;67697;50.750;-3.270;2024-01-11T05:40:00;102700.62;;;-0.36;100.00
78409;BME280;67697;50.750;-3.270;2024-01-11T05:42:25;102696.96;;;0.15;100.00
78409;BME280;67697;50.750;-3.270;2024-01-11T05:44:52;102698.17;;;0.43;97.43
78409;BME280;67697;50.750;-3.270;2024-01-11T05:47:18;102695.11;;;0.38;96.72
78409;BME280;67697;50.750;-3.270;2024-01-11T05:49:42;102692.37;;;0.38;96.55
78409;BME280;67697;50.750;-3.270;2024-01-11T05:52:07;102696.67;;;0.41;99.39
78409;BME280;67697;50.750;-3.270;2024-01-11T05:54:34;102696.30;;;0.15;99.55
78409;BME280;67697;50.750;-3.270;2024-01-11T05:56:59;102700.79;;;-0.05;100.00
78409;BME280;67697;50.750;-3.270;2024-01-11T05:59:24;102705.16;;;1.14;98.36
78409;BME280;67697;50.750;-3.270;2024-01-11T06:01:49;102709.65;;;0.58;97.48
78409;BME280;67697;50.750;-3.270;2024-01-11T06:04:15;102705.01;;;1.23;94.67
78409;BME280;67697;50.750;-3.270;2024-01-11T06:06:40;102711.75;;;1.04;92.85
78409;BME280;67697;50.750;-3.270;2024-01-11T06:09:06;102722.56;;;0.05;95.90
78409;BME280;67697;50.750;-3.270;2024-01-11T06:11:33;102710.38;;;-0.20;100.00
78409;BME280;67697;50.750;-3.270;2024-01-11T06:13:57;102707.11;;;0.17;100.00
78409;BME280;67697;50.750;-3.270;2024-01-11T06:16:22;102712.96;;;0.47;100.00
78409;BME280;67697;50.750;-3.270;2024-01-11T06:18:48;102712.27;;;1.01;99.52
78409;BME280;67697;50.750;-3.270;2024-01-11T06:21:13;102715.16;;;-0.00;98.77
78409;BME280;67697;50.750;-3.270;2024-01-11T06:23:39;102722.60;;;0.60;99.65
78409;BME280;67697;50.750;-3.270;2024-01-11T06:26:04;102733.63;;;0.57;99.33
78409;BME280;67697;50.750;-3.270;2024-01-11T06:28:30;102735.67;;;0.56;97.10
78409;BME280;67697;50.750;-3.270;2024-01-11T06:30:55;102731.36;;;0.67;95.73
78409;BME280;67697;50.750;-3.270;2024-01-11T06:33:22;102733.81;;;0.60;96.81
78409;BME280;67697;50.750;-3.270;2024-01-11T06:35:46;102736.81;;;0.52;99.00
78409;BME280;67697;50.750;-3.270;2024-01-11T06:38:12;102737.73;;;-0.25;100.00
78409;BME280;67697;50.750;-3.270;2024-01-11T06:40:37;102743.37;;;-0.46;100.00
78409;BME280;67697;50.750;-3.270;2024-01-11T06:43:03;102743.09;;;0.57;100.00
78409;BME280;67697;50.750;-3.270;2024-01-11T06:45:29;102751.13;;;-0.51;100.00
78409;BME280;67697;50.750;-3.270;2024-01-11T06:47:59;102767.37;;;0.14;100.00
78409;BME280;67697;50.750;-3.270;2024-01-11T06:50:20;102765.98;;;-0.07;100.00
78409;BME280;67697;50.750;-3.270;2024-01-11T06:52:45;102760.85;;;0.10;99.37
78409;BME280;67697;50.750;-3.270;2024-01-11T06:55:11;102774.12;;;0.93;97.58
78409;BME280;67697;50.750;-3.270;2024-01-11T06:57:36;102763.40;;;-0.12;98.95
78409;BME280;67697;50.750;-3.270;2024-01-11T07:00:02;102759.56;;;0.22;98.74
78409;BME280;67697;50.750;-3.270;2024-01-11T07:02:27;102768.01;;;0.09;98.50
78409;BME280;67697;50.750;-3.270;2024-01-11T07:04:52;102773.52;;;-0.25;98.78
78409;BME280;67697;50.750;-3.270;2024-01-11T07:07:19;102778.67;;;0.07;97.90
78409;BME280;67697;50.750;-3.270;2024-01-11T07:09:44;102782.30;;;-0.12;98.07
78409;BME280;67697;50.750;-3.270;2024-01-11T07:12:09;102788.35;;;-0.71;98.80
78409;BME280;67697;50.750;-3.270;2024-01-11T07:14:34;102786.71;;;-0.11;98.73
78409;BME280;67697;50.750;-3.270;2024-01-11T07:17:00;102791.89;;;-0.17;97.64
78409;BME280;67697;50.750;-3.270;2024-01-11T07:19:25;102810.75;;;-0.14;100.00
78409;BME280;67697;50.750;-3.270;2024-01-11T07:21:51;102800.42;;;-0.59;100.00
78409;BME280;67697;50.750;-3.270;2024-01-11T07:24:21;102806.39;;;-0.15;100.00
78409;BME280;67697;50.750;-3.270;2024-01-11T07:26:42;102810.62;;;0.17;100.00
78409;BME280;67697;50.750;-3.270;2024-01-11T07:29:07;102812.40;;;0.34;97.78
78409;BME280;67697;50.750;-3.270;2024-01-11T07:31:33;102822.29;;;0.55;95.90
78409;BME280;67697;50.750;-3.270;2024-01-11T07:33:59;102822.06;;;0.60;97.68
78409;BME280;67697;50.750;-3.270;2024-01-11T07:36:23;102829.29;;;0.12;99.43
78409;BME280;67697;50.750;-3.270;2024-01-11T07:38:49;102836.40;;;0.23;100.00
78409;BME280;67697;50.750;-3.270;2024-01-11T07:41:14;102845.01;;;0.20;100.00
78409;BME280;67697;50.750;-3.270;2024-01-11T07:43:40;102846.79;;;0.25;100.00
78409;BME280;67697;50.750;-3.270;2024-01-11T07:46:05;102844.55;;;0.17;100.00
78409;BME280;67697;50.750;-3.270;2024-01-11T07:48:31;102849.87;;;0.23;100.00
78409;BME280;67697;50.750;-3.270;2024-01-11T07:50:57;102850.20;;;-0.01;100.00
78409;BME280;67697;50.750;-3.270;2024-01-11T07:53:22;102847.47;;;0.28;100.00
78409;BME280;67697;50.750;-3.270;2024-01-11T07:55:47;102854.51;;;-0.18;100.00
78409;BME280;67697;50.750;-3.270;2024-01-11T07:58:12;102856.77;;;-0.48;100.00
78409;BME280;67697;50.750;-3.270;2024-01-11T08:00:38;102856.12;;;-0.35;100.00
78409;BME280;67697;50.750;-3.270;2024-01-11T08:03:04;102864.84;;;-0.27;100.00
78409;BME280;67697;50.750;-3.270;2024-01-11T08:05:29;102864.53;;;-0.36;100.00
78409;BME280;67697;50.750;-3.270;2024-01-11T08:07:54;102869.46;;;0.13;100.00
78409;BME280;67697;50.750;-3.270;2024-01-11T08:10:19;102870.70;;;-0.27;100.00
78409;BME280;67697;50.750;-3.270;2024-01-11T08:12:45;102880.33;;;0.50;100.00
78409;BME280;67697;50.750;-3.270;2024-01-11T08:15:11;102878.39;;;0.64;100.00
78409;BME280;67697;50.750;-3.270;2024-01-11T08:17:37;102878.57;;;-0.44;100.00
78409;BME280;67697;50.750;-3.270;2024-01-11T08:20:04;102875.44;;;-0.03;100.00
78409;BME280;67697;50.750;-3.270;2024-01-11T08:22:26;102877.19;;;0.20;100.00
78409;BME280;67697;50.750;-3.270;2024-01-11T08:24:51;102885.06;;;-1.06;100.00
78409;BME280;67697;50.750;-3.270;2024-01-11T08:27:17;102888.85;;;-0.57;100.00
78409;BME280;67697;50.750;-3.270;2024-01-11T08:29:42;102884.31;;;0.23;100.00
78409;BME280;67697;50.750;-3.270;2024-01-11T08:32:08;102889.76;;;-0.19;100.00
78409;BME280;67697;50.750;-3.270;2024-01-11T08:34:33;102893.16;;;0.34;100.00
78409;BME280;67697;50.750;-3.270;2024-01-11T08:36:59;102895.19;;;-0.54;100.00
78409;BME280;67697;50.750;-3.270;2024-01-11T08:39:24;102896.47;;;-0.42;100.00
78409;BME280;67697;50.750;-3.270;2024-01-11T08:41:50;102893.77;;;0.54;100.00
78409;BME280;67697;50.750;-3.270;2024-01-11T08:44:15;102900.16;;;-0.24;100.00
78409;BME280;67697;50.750;-3.270;2024-01-11T08:46:41;102903.66;;;0.47;100.00
78409;BME280;67697;50.750;-3.270;2024-01-11T08:49:07;102903.56;;;-0.59;100.00
78409;BME280;67697;50.750;-3.270;2024-01-11T08:51:37;102901.87;;;0.00;100.00
78409;BME280;67697;50.750;-3.270;2024-01-11T08:53:57;102896.29;;;-0.28;100.00
78409;BME280;67697;50.750;-3.270;2024-01-11T08:56:22;102895.23;;;0.08;100.00
78409;BME280;67697;50.750;-3.270;2024-01-11T08:58:48;102903.86;;;0.40;100.00
78409;BME280;67697;50.750;-3.270;2024-01-11T09:01:13;102907.84;;;0.03;100.00
78409;BME280;67697;50.750;-3.270;2024-01-11T09:03:39;102912.07;;;0.27;100.00
78409;BME280;67697;50.750;-3.270;2024-01-11T09:06:04;102917.21;;;0.03;100.00
78409;BME280;67697;50.750;-3.270;2024-01-11T09:08:30;102920.67;;;-0.21;100.00
78409;BME280;67697;50.750;-3.270;2024-01-11T09:10:56;102922.55;;;0.25;100.00
78409;BME280;67697;50.750;-3.270;2024-01-11T09:13:21;102928.53;;;-0.04;100.00
78409;BME280;67697;50.750;-3.270;2024-01-11T09:15:47;102926.99;;;-0.30;100.00
78409;BME280;67697;50.750;-3.270;2024-01-11T09:18:12;102930.31;;;0.78;100.00
78409;BME280;67697;50.750;-3.270;2024-01-11T09:20:38;102938.97;;;-0.02;100.00
78409;BME280;67697;50.750;-3.270;2024-01-11T09:23:04;102937.63;;;0.06;100.00
78409;BME280;67697;50.750;-3.270;2024-01-11T09:25:29;102939.34;;;-0.44;100.00
78409;BME280;67697;50.750;-3.270;2024-01-11T09:27:55;102938.73;;;0.60;100.00
78409;BME280;67697;50.750;-3.270;2024-01-11T09:30:20;102945.11;;;0.23;100.00
78409;BME280;67697;50.750;-3.270;2024-01-11T09:32:46;102952.60;;;0.47;100.00
78409;BME280;67697;50.750;-3.270;2024-01-11T09:35:11;102957.00;;;-0.02;100.00
78409;BME280;67697;50.750;-3.270;2024-01-11T09:37:36;102960.45;;;0.01;100.00
78409;BME280;67697;50.750;-3.270;2024-01-11T09:40:02;102967.87;;;0.61;100.00
78409;BME280;67697;50.750;-3.270;2024-01-11T09:42:29;102971.64;;;0.15;100.00
78409;BME280;67697;50.750;-3.270;2024-01-11T09:44:53;102972.47;;;0.96;100.00
78409;BME280;67697;50.750;-3.270;2024-01-11T09:47:24;102974.81;;;0.84;100.00
78409;BME280;67697;50.750;-3.270;2024-01-11T09:49:45;102969.42;;;0.12;100.00
78409;BME280;67697;50.750;-3.270;2024-01-11T09:52:10;102972.66;;;0.93;100.00
78409;BME280;67697;50.750;-3.270;2024-01-11T09:54:35;102975.25;;;1.23;100.00
78409;BME280;67697;50.750;-3.270;2024-01-11T09:57:02;102975.82;;;0.63;100.00
78409;BME280;67697;50.750;-3.270;2024-01-11T09:59:26;102984.06;;;0.27;100.00
78409;BME280;67697;50.750;-3.270;2024-01-11T10:01:52;102989.61;;;1.69;100.00
78409;BME280;67697;50.750;-3.270;2024-01-11T10:04:17;102998.52;;;0.44;100.00
78409;BME280;67697;50.750;-3.270;2024-01-11T10:06:42;103008.36;;;0.54;100.00
78409;BME280;67697;50.750;-3.270;2024-01-11T10:09:13;103009.03;;;0.73;100.00
78409;BME280;67697;50.750;-3.270;2024-01-11T10:11:34;103006.30;;;0.47;100.00
78409;BME280;67697;50.750;-3.270;2024-01-11T10:13:59;103013.28;;;0.31;100.00
78409;BME280;67697;50.750;-3.270;2024-01-11T10:16:24;103014.14;;;0.19;100.00
78409;BME280;67697;50.750;-3.270;2024-01-11T10:18:51;103016.95;;;-0.15;100.00
78409;BME280;67697;50.750;-3.270;2024-01-11T10:21:15;103018.49;;;0.81;100.00
78409;BME280;67697;50.750;-3.270;2024-01-11T10:23:42;103017.87;;;1.16;100.00
78409;BME280;67697;50.750;-3.270;2024-01-11T10:26:07;103023.90;;;1.18;100.00
78409;BME280;67697;50.750;-3.270;2024-01-11T10:28:32;103038.64;;;1.49;100.00
78409;BME280;67697;50.750;-3.270;2024-01-11T10:30:58;103039.47;;;0.75;100.00
78409;BME280;67697;50.750;-3.270;2024-01-11T10:33:23;103046.43;;;0.65;100.00
78409;BME280;67697;50.750;-3.270;2024-01-11T10:35:49;103045.47;;;1.34;100.00
78409;BME280;67697;50.750;-3.270;2024-01-11T10:38:14;103045.58;;;0.98;100.00
78409;BME280;67697;50.750;-3.270;2024-01-11T10:40:40;103050.40;;;0.77;100.00
78409;BME280;67697;50.750;-3.270;2024-01-11T10:43:08;103051.60;;;0.80;100.00
78409;BME280;67697;50.750;-3.270;2024-01-11T10:45:32;103053.06;;;0.84;100.00
78409;BME280;67697;50.750;-3.270;2024-01-11T10:48:01;103063.45;;;1.28;100.00
78409;BME280;67697;50.750;-3.270;2024-01-11T10:50:23;103057.79;;;1.21;100.00
78409;BME280;67697;50.750;-3.270;2024-01-11T10:53:03;103059.04;;;1.48;100.00
78409;BME280;67697;50.750;-3.270;2024-01-11T10:55:13;103061.23;;;0.85;100.00
78409;BME280;67697;50.750;-3.270;2024-01-11T10:57:39;103061.85;;;1.46;100.00
78409;BME280;67697;50.750;-3.270;2024-01-11T11:00:06;103066.48;;;1.79;100.00
78409;BME280;67697;50.750;-3.270;2024-01-11T11:02:29;103064.77;;;1.63;100.00
78409;BME280;67697;50.750;-3.270;2024-01-11T11:04:55;103070.77;;;2.16;98.02
78409;BME280;67697;50.750;-3.270;2024-01-11T11:07:20;103065.63;;;2.46;96.67
78409;BME280;67697;50.750;-3.270;2024-01-11T11:09:46;103065.58;;;1.50;99.97
78409;BME280;67697;50.750;-3.270;2024-01-11T11:12:12;103070.97;;;2.04;99.78
78409;BME280;67697;50.750;-3.270;2024-01-11T11:14:38;103073.04;;;2.09;98.57
78409;BME280;67697;50.750;-3.270;2024-01-11T11:17:04;103082.09;;;1.59;100.00
78409;BME280;67697;50.750;-3.270;2024-01-11T11:19:28;103076.62;;;0.95;100.00
78409;BME280;67697;50.750;-3.270;2024-01-11T11:21:54;103081.05;;;2.34;100.00
78409;BME280;67697;50.750;-3.270;2024-01-11T11:24:20;103079.07;;;1.59;100.00
78409;BME280;67697;50.750;-3.270;2024-01-11T11:26:45;103078.09;;;1.49;100.00
78409;BME280;67697;50.750;-3.270;2024-01-11T11:29:12;103082.49;;;1.47;100.00
78409;BME280;67697;50.750;-3.270;2024-01-11T11:31:38;103077.77;;;2.53;99.00
78409;BME280;67697;50.750;-3.270;2024-01-11T11:34:04;103083.62;;;1.96;97.75
78409;BME280;67697;50.750;-3.270;2024-01-11T11:36:29;103079.60;;;2.58;97.44
78409;BME280;67697;50.750;-3.270;2024-01-11T11:38:54;103074.30;;;1.71;97.60
78409;BME280;67697;50.750;-3.270;2024-01-11T11:41:21;103065.13;;;1.93;98.77
78409;BME280;67697;50.750;-3.270;2024-01-11T11:43:48;103070.78;;;2.40;97.40
78409;BME280;67697;50.750;-3.270;2024-01-11T11:46:12;103072.76;;;2.34;95.62
78409;BME280;67697;50.750;-3.270;2024-01-11T11:48:48;103072.91;;;2.68;94.94
78409;BME280;67697;50.750;-3.270;2024-01-11T11:51:06;103067.81;;;2.17;98.00
78409;BME280;67697;50.750;-3.270;2024-01-11T11:53:30;103075.20;;;2.17;97.93
78409;BME280;67697;50.750;-3.270;2024-01-11T11:55:54;103074.12;;;1.95;98.99
78409;BME280;67697;50.750;-3.270;2024-01-11T11:58:19;103072.41;;;1.86;97.57
78409;BME280;67697;50.750;-3.270;2024-01-11T12:00:46;103072.52;;;2.42;96.38
78409;BME280;67697;50.750;-3.270;2024-01-11T12:03:11;103076.40;;;2.34;96.55
78409;BME280;67697;50.750;-3.270;2024-01-11T12:05:38;103077.15;;;2.49;97.67
78409;BME280;67697;50.750;-3.270;2024-01-11T12:08:01;103071.90;;;2.43;96.27
78409;BME280;67697;50.750;-3.270;2024-01-11T12:10:27;103066.23;;;2.81;93.34
78409;BME280;67697;50.750;-3.270;2024-01-11T12:12:52;103070.74;;;1.21;96.52
78409;BME280;67697;50.750;-3.270;2024-01-11T12:15:18;103067.14;;;2.53;97.10
78409;BME280;67697;50.750;-3.270;2024-01-11T12:17:43;103073.78;;;2.95;95.50
78409;BME280;67697;50.750;-3.270;2024-01-11T12:20:09;103077.48;;;2.79;95.42
78409;BME280;67697;50.750;-3.270;2024-01-11T12:22:34;103077.02;;;3.00;93.84
78409;BME280;67697;50.750;-3.270;2024-01-11T12:24:59;103077.94;;;2.55;94.29
78409;BME280;67697;50.750;-3.270;2024-01-11T12:27:26;103073.24;;;1.97;96.11
78409;BME280;67697;50.750;-3.270;2024-01-11T12:29:56;103072.96;;;1.90;97.94
78409;BME280;67697;50.750;-3.270;2024-01-11T12:32:17;103072.31;;;1.89;97.28